Time;durP1;ratioP1;P1;durP2;ratioP2;P2;SDS_P1;SDS_P2;PMS_P1;PMS_P2;Temp;Humidity;BMP_temperature;BMP_pressure;BME280_temperature;BME280_humidity;BME280_pressure;Samples;Min_cycle;Max_cycle;Signal;HPM_P1;HPM_P2
2023/09/24 00:02:04;;;;;;;;;;;;;;;13.17;100.00;60892.56;4852020;28;20315;-90
2023/09/24 00:04:43;;;;;;;;;;;;;;;13.15;100.00;60892.56;4841494;28;19926;-91
2023/09/24 00:07:21;;;;;;;;;;;;;;;13.12;100.00;60892.56;4844991;28;20000;-89
2023/09/24 00:10:02;;;;;;;;;;;;;;;13.09;100.00;60892.56;4844879;28;19918;-91
2023/09/24 00:12:42;;;;;;;;;;;;;;;13.10;100.00;60892.56;4851757;28;19964;-90
2023/09/24 00:15:21;;;;;;;;;;;;;;;13.08;100.00;60892.56;4857500;28;19925;-91
2023/09/24 00:18:00;;;;;;;;;;;;;;;13.02;100.00;60892.56;4846630;28;19980;-90
2023/09/24 00:20:39;;;;;;;;;;;;;;;13.04;100.00;60892.56;4849825;28;19913;-90
2023/09/24 00:23:18;;;;;;;;;;;;;;;-145.06;100.00;60892.56;4846053;28;19917;-90
2023/09/24 00:25:57;;;;;;;;;;;;;;;-145.06;100.00;60892.56;4845910;28;20000;-90
2023/09/24 00:28:36;;;;;;;;;;;;;;;-145.06;100.00;60892.56;4847640;28;19921;-90
2023/09/24 00:31:15;;;;;;;;;;;;;;;-145.06;100.00;60892.56;4839956;28;19917;-89
2023/09/24 00:33:54;;;;;;;;;;;;;;;-145.06;100.00;60892.56;4846195;28;19957;-90
2023/09/24 00:36:33;;;;;;;;;;;;;;;-145.06;100.00;60892.56;4841746;28;19913;-92
2023/09/24 00:39:13;;;;;;;;;;;;;;;-145.06;100.00;60892.56;4842908;28;19921;-90
2023/09/24 00:41:52;;;;;;;;;;;;;;;-145.06;100.00;60892.56;4838241;28;20356;-90
2023/09/24 00:44:31;;;;;;;;;;;;;;;-145.06;100.00;60892.56;4854465;28;19918;-89
2023/09/24 00:47:12;;;;;;;;;;;;;;;-145.06;100.00;60892.56;4840730;28;19914;-91
2023/09/24 00:49:53;;;;;;;;;;;;;;;-145.06;100.00;60892.56;4841923;28;19917;-89
2023/09/24 00:52:32;;;;;;;;;;;;;;;-145.06;100.00;60892.56;4844414;28;19977;-91
2023/09/24 00:55:13;;;;;;;;;;;;;;;-145.06;100.00;60892.56;4845499;28;19913;-89
2023/09/24 00:57:52;;;;;;;;;;;;;;;-145.06;100.00;60892.56;4842819;28;19913;-90
2023/09/24 01:00:34;;;;;;;;;;;;;;;-145.06;100.00;60892.56;4849907;28;19918;-90
2023/09/24 01:03:13;;;;;;;;;;;;;;;-145.06;100.00;60892.56;4843609;28;19968;-91
2023/09/24 01:05:53;;;;;;;;;;;;;;;-145.06;100.00;60892.56;4844689;28;19922;-90
2023/09/24 01:08:33;;;;;;;;;;;;;;;-145.06;100.00;60892.56;4843537;28;19918;-91
2023/09/24 01:11:12;;;;;;;;;;;;;;;-145.06;100.00;60892.56;4843623;28;19921;-91
2023/09/24 01:13:51;;;;;;;;;;;;;;;-145.06;100.00;60892.56;4848620;28;19917;-91
2023/09/24 01:16:32;;;;;;;;;;;;;;;-145.06;100.00;60892.56;4853370;28;19949;-90
2023/09/24 01:19:11;;;;;;;;;;;;;;;-145.06;100.00;60892.56;4838732;28;19917;-90
2023/09/24 01:21:50;;;;;;;;;;;;;;;-145.06;100.00;60892.56;4846410;28;19917;-90
2023/09/24 01:24:30;;;;;;;;;;;;;;;-145.06;100.00;60892.56;4834878;28;19922;-90
2023/09/24 01:27:09;;;;;;;;;;;;;;;-145.06;100.00;60892.56;4848359;28;19917;-91
2023/09/24 01:29:48;;;;;;;;;;;;;;;-145.06;100.00;60892.56;4841714;28;19922;-89
2023/09/24 01:32:27;;;;;;;;;;;;;;;-145.06;100.00;60892.56;4846699;28;19917;-90
2023/09/24 01:35:10;;;;;;;;;;;;;;;-145.06;100.00;60892.56;4854059;28;19941;-92
2023/09/24 01:37:49;;;;;;;;;;;;;;;11.97;100.00;60892.56;4848945;28;19918;-89
2023/09/24 01:40:33;;;;;;;;;;;;;;;11.95;100.00;60892.56;4837763;28;19922;-92
2023/09/24 01:43:14;;;;;;;;;;;;;;;11.92;100.00;60892.56;4849087;28;19921;-91
2023/09/24 01:45:53;;;;;;;;;;;;;;;-145.06;100.00;60892.56;4846076;28;20256;-91
2023/09/24 01:48:35;;;;;;;;;;;;;;;-145.06;100.00;60892.56;4846748;28;19917;-91
2023/09/24 01:51:14;;;;;;;;;;;;;;;-145.06;100.00;60892.56;4849516;28;19917;-90
2023/09/24 01:53:53;;;;;;;;;;;;;;;11.80;100.00;60892.56;4846396;28;19913;-90
2023/09/24 01:56:32;;;;;;;;;;;;;;;-145.06;100.00;60892.56;4842165;28;19941;-90
2023/09/24 01:59:11;;;;;;;;;;;;;;;-145.06;100.00;60892.56;4851295;28;19913;-89
2023/09/24 02:01:53;;;;;;;;;;;;;;;-145.06;100.00;60892.56;4844756;28;19914;-90
2023/09/24 02:04:32;;;;;;;;;;;;;;;-145.06;100.00;60892.56;4850509;28;20375;-90
2023/09/24 02:07:12;;;;;;;;;;;;;;;-145.06;100.00;60892.56;4847343;28;19914;-90
2023/09/24 02:09:51;;;;;;;;;;;;;;;-145.06;100.00;60892.56;4841163;28;19918;-90
2023/09/24 02:12:34;;;;;;;;;;;;;;;-145.06;100.00;60892.56;4850511;28;19965;-89
2023/09/24 02:15:15;;;;;;;;;;;;;;;-145.06;100.00;60892.56;4853527;28;19913;-89
2023/09/24 02:17:54;;;;;;;;;;;;;;;-145.06;100.00;60892.56;4842171;28;19922;-90
2023/09/24 02:20:33;;;;;;;;;;;;;;;11.48;100.00;60892.56;4852774;28;19956;-90
2023/09/24 02:23:12;;;;;;;;;;;;;;;-145.06;100.00;60892.56;4850753;28;19914;-89
2023/09/24 02:25:51;;;;;;;;;;;;;;;-145.06;100.00;60892.56;4846805;28;19929;-90
2023/09/24 02:28:30;;;;;;;;;;;;;;;-145.06;100.00;60892.56;4854846;28;19914;-91
2023/09/24 02:31:12;;;;;;;;;;;;;;;-145.06;100.00;60892.56;4845201;28;20438;-90
2023/09/24 02:33:54;;;;;;;;;;;;;;;-145.06;100.00;60892.56;4844157;28;19918;-91
2023/09/24 02:36:34;;;;;;;;;;;;;;;-145.06;100.00;60892.56;4852036;28;19914;-89
2023/09/24 02:39:13;;;;;;;;;;;;;;;-145.06;100.00;60892.56;4842252;28;19914;-90
2023/09/24 02:41:53;;;;;;;;;;;;;;;-145.06;100.00;60892.56;4843329;28;19917;-91
2023/09/24 02:44:31;;;;;;;;;;;;;;;-145.06;100.00;60892.56;4857817;28;19961;-90
2023/09/24 02:47:10;;;;;;;;;;;;;;;-145.06;100.00;60892.56;4848122;28;19913;-90
2023/09/24 02:49:50;;;;;;;;;;;;;;;-145.06;100.00;60892.56;4844781;28;19914;-92
2023/09/24 02:52:28;;;;;;;;;;;;;;;-145.06;100.00;60892.56;4850491;28;19917;-89
2023/09/24 02:55:10;;;;;;;;;;;;;;;-145.06;100.00;60892.56;4852213;28;20256;-92
2023/09/24 02:57:52;;;;;;;;;;;;;;;-145.06;100.00;60892.56;4840615;28;20028;-89
2023/09/24 03:00:41;;;;;;;;;;;;;;;-145.06;100.00;60892.56;4844305;28;20260;-92
2023/09/24 03:03:20;;;;;;;;;;;;;;;-145.06;100.00;60892.56;4855331;28;20000;-90
2023/09/24 03:05:59;;;;;;;;;;;;;;;-145.06;100.00;60892.56;4848677;28;19921;-90
2023/09/24 03:08:38;;;;;;;;;;;;;;;-145.06;100.00;60892.56;4840857;28;19922;-91
2023/09/24 03:11:20;;;;;;;;;;;;;;;-145.06;100.00;60892.56;4845246;28;19924;-90
2023/09/24 03:13:59;;;;;;;;;;;;;;;-145.06;100.00;60892.56;4853215;28;19917;-90
2023/09/24 03:16:38;;;;;;;;;;;;;;;-145.06;100.00;60892.56;4844207;28;19917;-89
2023/09/24 03:19:17;;;;;;;;;;;;;;;-145.06;100.00;60892.56;4849828;28;19913;-89
2023/09/24 03:21:56;;;;;;;;;;;;;;;-145.06;100.00;60892.56;4845359;28;19925;-90
2023/09/24 03:24:35;;;;;;;;;;;;;;;-145.06;100.00;60892.56;4842118;28;19913;-89
2023/09/24 03:27:14;;;;;;;;;;;;;;;-145.06;100.00;60892.56;4847854;28;20559;-89
2023/09/24 03:29:53;;;;;;;;;;;;;;;-145.06;100.00;60892.56;4848715;28;19917;-91
2023/09/24 03:32:34;;;;;;;;;;;;;;;-145.06;100.00;60892.56;4850178;28;19921;-90
2023/09/24 03:35:13;;;;;;;;;;;;;;;-145.06;100.00;60892.56;4854314;28;19913;-90
2023/09/24 03:37:53;;;;;;;;;;;;;;;-145.06;100.00;60892.56;4839108;28;19917;-89
2023/09/24 03:40:34;;;;;;;;;;;;;;;-145.06;100.00;60892.56;4845157;28;19924;-90
2023/09/24 03:43:14;;;;;;;;;;;;;;;-145.06;100.00;60892.56;4851001;28;19985;-90
2023/09/24 03:45:53;;;;;;;;;;;;;;;-145.06;100.00;60892.56;4843695;28;20012;-91
2023/09/24 03:48:32;;;;;;;;;;;;;;;-145.06;100.00;60892.56;4846449;28;19921;-91
2023/09/24 03:51:11;;;;;;;;;;;;;;;-145.06;100.00;60892.56;4842159;28;19940;-90
2023/09/24 03:53:50;;;;;;;;;;;;;;;-145.06;100.00;60892.56;4844656;28;19917;-89
2023/09/24 03:56:29;;;;;;;;;;;;;;;-145.06;100.00;60892.56;4848294;28;19956;-90
2023/09/24 03:59:08;;;;;;;;;;;;;;;-145.06;100.00;60892.56;4845692;28;19925;-91
2023/09/24 04:01:49;;;;;;;;;;;;;;;-145.06;100.00;60892.56;4838251;28;19918;-89
2023/09/24 04:04:29;;;;;;;;;;;;;;;-145.06;100.00;60892.56;4846790;28;19925;-89
2023/09/24 04:07:08;;;;;;;;;;;;;;;-145.06;100.00;60892.56;4847707;28;20221;-89
2023/09/24 04:09:50;;;;;;;;;;;;;;;-145.06;100.00;60892.56;4833706;28;20000;-91
2023/09/24 04:12:32;;;;;;;;;;;;;;;-145.06;100.00;60892.56;4845139;28;19921;-90
2023/09/24 04:15:12;;;;;;;;;;;;;;;-145.06;100.00;60892.56;4844008;28;20245;-90
2023/09/24 04:17:52;;;;;;;;;;;;;;;-145.06;100.00;60892.56;4841646;28;19948;-89
2023/09/24 04:20:34;;;;;;;;;;;;;;;-145.06;100.00;60892.56;4852643;28;19969;-89
2023/09/24 04:23:13;;;;;;;;;;;;;;;-145.06;100.00;60892.56;4845770;28;19969;-91
2023/09/24 04:25:52;;;;;;;;;;;;;;;-145.06;100.00;60892.56;4856904;28;19917;-89
2023/09/24 04:28:33;;;;;;;;;;;;;;;-145.06;100.00;60892.56;4854308;28;19917;-89
2023/09/24 04:31:12;;;;;;;;;;;;;;;-145.06;100.00;60892.56;4840974;28;19918;-90
2023/09/24 04:33:51;;;;;;;;;;;;;;;-145.06;100.00;60892.56;4838713;28;19985;-89
2023/09/24 04:36:30;;;;;;;;;;;;;;;-145.06;100.00;60892.56;4840812;28;19917;-89
2023/09/24 04:39:12;;;;;;;;;;;;;;;-145.06;100.00;60892.56;4856931;28;19968;-90
2023/09/24 04:41:51;;;;;;;;;;;;;;;-145.06;100.00;60892.56;4839328;28;19917;-90
2023/09/24 04:44:30;;;;;;;;;;;;;;;-145.06;100.00;60892.56;4835429;28;19917;-91
2023/09/24 04:47:09;;;;;;;;;;;;;;;-145.06;100.00;60892.56;4839755;28;20008;-89
2023/09/24 04:49:48;;;;;;;;;;;;;;;-145.06;100.00;60892.56;4839184;28;20366;-90
2023/09/24 04:52:27;;;;;;;;;;;;;;;-145.06;100.00;60892.56;4843278;28;20301;-90
2023/09/24 04:55:06;;;;;;;;;;;;;;;-145.06;100.00;60892.56;4841077;28;19952;-92
2023/09/24 04:57:48;;;;;;;;;;;;;;;-145.06;100.00;60892.56;4856880;28;20256;-90
2023/09/24 05:00:27;;;;;;;;;;;;;;;10.68;100.00;60892.56;4845749;28;20437;-91
2023/09/24 05:03:06;;;;;;;;;;;;;;;10.67;100.00;60892.56;4845849;28;19999;-91
2023/09/24 05:05:45;;;;;;;;;;;;;;;10.65;100.00;60892.56;4839534;28;19921;-91
2023/09/24 05:08:24;;;;;;;;;;;;;;;10.67;100.00;60892.56;4843778;28;20291;-90
2023/09/24 05:11:04;;;;;;;;;;;;;;;10.65;100.00;60892.56;4839105;28;19913;-91
2023/09/24 05:13:43;;;;;;;;;;;;;;;10.64;100.00;60892.56;4842903;28;19914;-89
2023/09/24 05:16:23;;;;;;;;;;;;;;;10.63;100.00;60892.56;4847305;28;19925;-91
2023/09/24 05:19:03;;;;;;;;;;;;;;;10.62;100.00;60892.56;4851822;28;19913;-91
2023/09/24 05:21:42;;;;;;;;;;;;;;;10.63;100.00;60892.56;4843002;28;19921;-91
2023/09/24 05:24:21;;;;;;;;;;;;;;;10.62;100.00;60892.56;4849648;28;19914;-89
2023/09/24 05:27:00;;;;;;;;;;;;;;;10.63;100.00;60892.56;4849407;28;19917;-91
2023/09/24 05:29:45;;;;;;;;;;;;;;;10.64;100.00;60892.56;4846714;28;19918;-91
2023/09/24 05:32:23;;;;;;;;;;;;;;;10.63;100.00;60892.56;4854419;28;20359;-90
2023/09/24 05:35:03;;;;;;;;;;;;;;;10.63;100.00;60892.56;4841895;28;19917;-91
2023/09/24 05:37:42;;;;;;;;;;;;;;;10.64;100.00;60892.56;4842237;28;19913;-91
2023/09/24 05:40:22;;;;;;;;;;;;;;;10.64;100.00;60892.56;4845785;28;20004;-91
2023/09/24 05:43:01;;;;;;;;;;;;;;;10.65;100.00;60892.56;4848063;28;19944;-91
2023/09/24 05:45:47;;;;;;;;;;;;;;;10.67;100.00;60892.56;4859946;28;19953;-91
2023/09/24 05:48:25;;;;;;;;;;;;;;;10.67;100.00;60892.56;4839532;28;20249;-91
2023/09/24 05:51:05;;;;;;;;;;;;;;;10.68;100.00;60892.56;4848578;28;19937;-91
2023/09/24 05:53:44;;;;;;;;;;;;;;;10.68;100.00;60892.56;4846855;28;19913;-90
2023/09/24 05:56:24;;;;;;;;;;;;;;;10.67;100.00;60892.56;4842512;28;20088;-90
2023/09/24 05:59:03;;;;;;;;;;;;;;;10.67;100.00;60892.56;4852484;28;19917;-91
2023/09/24 06:01:42;;;;;;;;;;;;;;;10.68;100.00;60892.56;4843178;28;19921;-90
2023/09/24 06:04:21;;;;;;;;;;;;;;;-145.06;100.00;60892.56;4849657;28;20019;-92
2023/09/24 06:07:03;;;;;;;;;;;;;;;10.68;100.00;60892.56;4838750;28;19918;-90
2023/09/24 06:09:42;;;;;;;;;;;;;;;10.68;100.00;60892.56;4842069;28;19917;-89
2023/09/24 06:12:22;;;;;;;;;;;;;;;-145.06;100.00;60892.56;4835573;28;19917;-90
2023/09/24 06:15:00;;;;;;;;;;;;;;;-145.06;100.00;60892.56;4844678;28;20007;-90
2023/09/24 06:17:40;;;;;;;;;;;;;;;-145.06;100.00;60892.56;4834528;28;20000;-90
2023/09/24 06:20:19;;;;;;;;;;;;;;;-145.06;100.00;60892.56;4842046;28;19952;-92
2023/09/24 06:22:57;;;;;;;;;;;;;;;-145.06;100.00;60892.56;4848951;28;20434;-91
2023/09/24 06:25:45;;;;;;;;;;;;;;;-145.06;100.00;60892.56;4845916;28;19952;-90
2023/09/24 06:28:25;;;;;;;;;;;;;;;-145.06;100.00;60892.56;4838345;28;19913;-91
2023/09/24 06:31:04;;;;;;;;;;;;;;;-145.06;100.00;60892.56;4850970;28;19953;-90
2023/09/24 06:33:49;;;;;;;;;;;;;;;-145.06;100.00;60892.56;4842257;28;19917;-90
2023/09/24 06:36:28;;;;;;;;;;;;;;;-145.06;100.00;60892.56;4848313;28;19917;-90
2023/09/24 06:39:13;;;;;;;;;;;;;;;-145.06;100.00;60892.56;4841967;28;19965;-89
2023/09/24 06:41:52;;;;;;;;;;;;;;;-145.06;100.00;60892.56;4845291;28;19922;-91
2023/09/24 06:44:31;;;;;;;;;;;;;;;-145.06;100.00;60892.56;4846376;28;19918;-90
2023/09/24 06:47:10;;;;;;;;;;;;;;;-145.06;100.00;60892.56;4855014;28;19952;-89
2023/09/24 06:49:50;;;;;;;;;;;;;;;-145.06;100.00;60892.56;4835562;28;19944;-91
2023/09/24 06:52:32;;;;;;;;;;;;;;;-145.06;100.00;60892.56;4849090;28;19917;-91
2023/09/24 06:55:12;;;;;;;;;;;;;;;-145.06;100.00;60892.56;4851515;28;19921;-89
2023/09/24 06:57:50;;;;;;;;;;;;;;;-145.06;100.00;60892.56;4844081;28;19913;-91
2023/09/24 07:00:30;;;;;;;;;;;;;;;-145.06;100.00;60892.56;4842337;28;20003;-91
2023/09/24 07:03:09;;;;;;;;;;;;;;;-145.06;100.00;60892.56;4843776;28;19918;-92
2023/09/24 07:05:47;;;;;;;;;;;;;;;-145.06;100.00;60892.56;4840980;28;20372;-90
2023/09/24 07:08:26;;;;;;;;;;;;;;;-145.06;100.00;60892.56;4836235;28;20264;-91
2023/09/24 07:11:38;;;;;;;;;;;;;;;-145.06;100.00;60892.56;4852069;28;19964;-89
2023/09/24 07:14:19;;;;;;;;;;;;;;;-145.06;100.00;60892.56;4825944;28;19917;-89
2023/09/24 07:16:57;;;;;;;;;;;;;;;-145.06;100.00;60892.56;4840331;28;20359;-90
2023/09/24 07:19:37;;;;;;;;;;;;;;;-145.06;100.00;60892.56;4843206;28;20240;-90
2023/09/24 07:22:17;;;;;;;;;;;;;;;-145.06;100.00;60892.56;4842506;28;20004;-91
2023/09/24 07:24:56;;;;;;;;;;;;;;;-145.06;100.00;60892.56;4844515;28;19922;-90
2023/09/24 07:27:35;;;;;;;;;;;;;;;11.69;100.00;60892.56;4844072;28;19917;-91
2023/09/24 07:30:15;;;;;;;;;;;;;;;11.76;100.00;60892.56;4846011;28;19922;-90
2023/09/24 07:32:54;;;;;;;;;;;;;;;11.84;100.00;60892.56;4842661;28;19916;-89
2023/09/24 07:35:34;;;;;;;;;;;;;;;11.92;100.00;60892.56;4850777;28;20245;-91
2023/09/24 07:38:13;;;;;;;;;;;;;;;-145.06;100.00;60892.56;4838459;28;19917;-91
2023/09/24 07:40:52;;;;;;;;;;;;;;;-145.06;100.00;60892.56;4835360;28;19918;-91
2023/09/24 07:43:31;;;;;;;;;;;;;;;-145.06;100.00;60892.56;4838481;28;19926;-90
2023/09/24 07:46:16;;;;;;;;;;;;;;;-145.06;100.00;60892.56;4837142;28;20368;-90
2023/09/24 07:48:54;;;;;;;;;;;;;;;-145.06;100.00;60892.56;4843871;28;19918;-90
2023/09/24 07:51:34;;;;;;;;;;;;;;;-145.06;100.00;60892.56;4837481;28;19918;-91
2023/09/24 07:54:13;;;;;;;;;;;;;;;-145.06;100.00;60892.56;4835193;28;19918;-90
2023/09/24 07:56:53;;;;;;;;;;;;;;;-145.06;100.00;60892.56;4847877;28;19992;-90
2023/09/24 07:59:32;;;;;;;;;;;;;;;-145.06;100.00;60892.56;4834222;28;19957;-92
2023/09/24 08:02:11;;;;;;;;;;;;;;;-145.06;100.00;60892.56;4852243;28;19918;-90
2023/09/24 08:04:49;;;;;;;;;;;;;;;-145.06;100.00;60892.56;4854618;28;20000;-90
2023/09/24 08:07:32;;;;;;;;;;;;;;;-145.06;100.00;60892.56;4842993;28;19917;-90
2023/09/24 08:10:14;;;;;;;;;;;;;;;13.14;100.00;60892.56;4834683;28;19926;-90
2023/09/24 08:12:55;;;;;;;;;;;;;;;13.24;100.00;60892.56;4839036;28;19922;-91
2023/09/24 08:15:34;;;;;;;;;;;;;;;-145.06;100.00;60892.56;4835932;28;19922;-91
2023/09/24 08:18:17;;;;;;;;;;;;;;;-145.06;100.00;60892.56;4862891;28;20275;-90
2023/09/24 08:20:57;;;;;;;;;;;;;;;-145.06;100.00;60892.56;4855029;28;20404;-92
2023/09/24 08:23:36;;;;;;;;;;;;;;;-145.06;100.00;60892.56;4849449;28;19917;-93
2023/09/24 08:26:15;;;;;;;;;;;;;;;-145.06;100.00;60892.56;4860973;28;19929;-90
2023/09/24 08:28:54;;;;;;;;;;;;;;;-145.06;100.00;60892.56;4853189;28;19918;-91
2023/09/24 08:31:34;;;;;;;;;;;;;;;-145.06;100.00;60892.56;4863949;28;19917;-89
2023/09/24 08:34:15;;;;;;;;;;;;;;;-145.06;100.00;60892.56;4865993;28;19917;-90
2023/09/24 08:36:57;;;;;;;;;;;;;;;14.58;100.00;60892.56;4853332;28;19929;-91
2023/09/24 08:39:36;;;;;;;;;;;;;;;14.38;100.00;60892.56;4860143;28;19917;-89
2023/09/24 08:42:18;;;;;;;;;;;;;;;14.49;100.00;60892.56;4855649;28;19929;-90
2023/09/24 08:45:09;;;;;;;;;;;;;;;-145.06;100.00;60892.56;4850907;28;20019;-89
2023/09/24 08:47:51;;;;;;;;;;;;;;;-145.06;100.00;60892.56;4858613;28;19929;-90
2023/09/24 08:50:33;;;;;;;;;;;;;;;-145.06;100.00;60892.56;4860883;28;19913;-89
2023/09/24 08:53:12;;;;;;;;;;;;;;;-145.06;100.00;60892.56;4864538;28;19921;-90
2023/09/24 08:55:52;;;;;;;;;;;;;;;-145.06;100.00;60892.56;4849526;28;19925;-92
2023/09/24 08:58:31;;;;;;;;;;;;;;;-145.06;100.00;60892.56;4861881;28;20051;-89
2023/09/24 09:01:17;;;;;;;;;;;;;;;-145.06;100.00;60892.56;4861023;28;19917;-90
2023/09/24 09:03:57;;;;;;;;;;;;;;;-145.06;100.00;60892.56;4864286;28;19961;-90
2023/09/24 09:06:57;;;;;;;;;;;;;;;-145.06;100.00;60892.56;4854346;28;20117;-90
2023/09/24 09:09:53;;;;;;;;;;;;;;;-145.06;100.00;60892.56;4875120;28;19921;-90
2023/09/24 09:12:43;;;;;;;;;;;;;;;-145.06;100.00;60892.56;4859408;28;19917;-92
2023/09/24 09:15:25;;;;;;;;;;;;;;;-145.06;100.00;60892.56;4866263;28;19917;-92
2023/09/24 09:18:08;;;;;;;;;;;;;;;-145.06;100.00;60892.56;4856371;28;19918;-91
2023/09/24 09:20:47;;;;;;;;;;;;;;;-145.06;100.00;60892.56;4860349;28;19922;-91
2023/09/24 09:23:37;;;;;;;;;;;;;;;-145.06;100.00;60892.56;4858963;28;19917;-91
2023/09/24 09:26:16;;;;;;;;;;;;;;;-145.06;100.00;60892.56;4864282;28;19925;-91
2023/09/24 09:28:55;;;;;;;;;;;;;;;-145.06;100.00;60892.56;4854858;28;19922;-91
2023/09/24 09:31:55;;;;;;;;;;;;;;;-145.06;100.00;60892.56;4851176;28;19921;-91
2023/09/24 09:34:34;;;;;;;;;;;;;;;-145.06;100.00;60892.56;4861938;28;19917;-90
2023/09/24 09:37:29;;;;;;;;;;;;;;;-145.06;100.00;60892.56;4854220;28;20375;-91
2023/09/24 09:40:09;;;;;;;;;;;;;;;-145.06;100.00;60892.56;4862756;28;19916;-91
2023/09/24 09:42:49;;;;;;;;;;;;;;;-145.06;100.00;60892.56;4859098;28;19996;-91
2023/09/24 09:45:52;;;;;;;;;;;;;;;-145.06;100.00;60892.56;4873432;28;19926;-91
2023/09/24 09:48:31;;;;;;;;;;;;;;;-145.06;100.00;60892.56;4853632;28;20015;-91
2023/09/24 09:51:16;;;;;;;;;;;;;;;-145.06;100.00;60892.56;4861979;28;19917;-91
2023/09/24 09:54:02;;;;;;;;;;;;;;;-145.06;100.00;60892.56;4856413;28;20256;-90
2023/09/24 09:56:44;;;;;;;;;;;;;;;-145.06;100.00;60892.56;4865838;28;19920;-90
2023/09/24 09:59:26;;;;;;;;;;;;;;;18.48;100.00;60892.56;4863043;28;20505;-91
2023/09/24 10:02:06;;;;;;;;;;;;;;;-145.06;100.00;60892.56;4860194;28;19914;-90
2023/09/24 10:05:03;;;;;;;;;;;;;;;-145.06;100.00;60892.56;4862337;28;19920;-91
2023/09/24 10:07:42;;;;;;;;;;;;;;;-145.06;100.00;60892.56;4868629;28;19921;-91
2023/09/24 10:10:34;;;;;;;;;;;;;;;-145.06;100.00;60892.56;4867386;28;19921;-92
2023/09/24 10:13:33;;;;;;;;;;;;;;;-145.06;100.00;60892.56;4859953;28;20335;-91
2023/09/24 10:16:35;;;;;;;;;;;;;;;-145.06;100.00;60892.56;4852575;28;19929;-91
2023/09/24 10:19:14;;;;;;;;;;;;;;;-145.06;100.00;60892.56;4877011;28;19913;-90
2023/09/24 10:21:53;;;;;;;;;;;;;;;18.24;100.00;60892.56;4851358;28;19921;-90
2023/09/24 10:24:35;;;;;;;;;;;;;;;-145.06;100.00;60892.56;4876668;28;19921;-91
2023/09/24 10:27:19;;;;;;;;;;;;;;;-145.06;100.00;60892.56;4861958;28;19921;-90
2023/09/24 10:29:59;;;;;;;;;;;;;;;-145.06;100.00;60892.56;4871728;28;19956;-91
2023/09/24 10:32:42;;;;;;;;;;;;;;;-145.06;100.00;60892.56;4870525;28;19913;-91
2023/09/24 10:35:21;;;;;;;;;;;;;;;-145.06;100.00;60892.56;4857501;28;19917;-92
2023/09/24 10:38:01;;;;;;;;;;;;;;;-145.06;100.00;60892.56;4862818;28;19921;-90
2023/09/24 10:41:00;;;;;;;;;;;;;;;-145.06;100.00;60892.56;4863316;28;19913;-90
2023/09/24 10:43:39;;;;;;;;;;;;;;;-145.06;100.00;60892.56;4856995;28;20011;-90
2023/09/24 10:46:34;;;;;;;;;;;;;;;-145.06;100.00;60892.56;4862707;28;19992;-92
2023/09/24 10:49:21;;;;;;;;;;;;;;;-145.06;100.00;60892.56;4864712;28;19917;-90
2023/09/24 10:52:00;;;;;;;;;;;;;;;-145.06;100.00;60892.56;4849998;28;19921;-90
2023/09/24 10:54:39;;;;;;;;;;;;;;;-145.06;100.00;60892.56;4856010;28;19924;-92
2023/09/24 10:57:28;;;;;;;;;;;;;;;-145.06;100.00;60892.56;4858653;28;19917;-92
2023/09/24 11:00:13;;;;;;;;;;;;;;;-145.06;100.00;60892.56;4871002;28;19920;-91
2023/09/24 11:03:00;;;;;;;;;;;;;;;-145.06;100.00;60892.56;4861377;28;20363;-92
2023/09/24 11:05:47;;;;;;;;;;;;;;;-145.06;100.00;60892.56;4861193;28;19956;-92
2023/09/24 11:08:31;;;;;;;;;;;;;;;-145.06;100.00;60892.56;4859180;28;20347;-90
2023/09/24 11:11:13;;;;;;;;;;;;;;;-145.06;100.00;60892.56;4876490;28;19921;-92
2023/09/24 11:13:52;;;;;;;;;;;;;;;-145.06;100.00;60892.56;4861111;28;20007;-91
2023/09/24 11:16:31;;;;;;;;;;;;;;;-145.06;100.00;60892.56;4867596;28;19921;-92
2023/09/24 11:19:10;;;;;;;;;;;;;;;-145.06;100.00;60892.56;4867698;28;19921;-90
2023/09/24 11:21:52;;;;;;;;;;;;;;;-145.06;100.00;60892.56;4866849;28;19921;-90
2023/09/24 11:24:31;;;;;;;;;;;;;;;-145.06;100.00;60892.56;4864981;28;19949;-90
2023/09/24 11:27:13;;;;;;;;;;;;;;;-145.06;100.00;60892.56;4867134;28;20521;-91
2023/09/24 11:29:56;;;;;;;;;;;;;;;-145.06;100.00;60892.56;4869324;28;19913;-91
2023/09/24 11:32:39;;;;;;;;;;;;;;;-145.06;100.00;60892.56;4883665;28;19925;-91
2023/09/24 11:35:19;;;;;;;;;;;;;;;-145.06;100.00;60892.56;4867314;28;19917;-91
2023/09/24 11:38:01;;;;;;;;;;;;;;;21.98;100.00;60892.56;4871583;28;20264;-92
2023/09/24 11:40:43;;;;;;;;;;;;;;;22.07;100.00;60892.56;4869961;28;20259;-92
2023/09/24 11:43:22;;;;;;;;;;;;;;;41.86;100.00;60892.56;4864179;28;19920;-91
2023/09/24 11:46:13;;;;;;;;;;;;;;;-145.06;100.00;60892.56;4851287;28;19972;-91
2023/09/24 11:48:54;;;;;;;;;;;;;;;-145.06;100.00;60892.56;4852385;28;19917;-91
2023/09/24 11:51:35;;;;;;;;;;;;;;;-145.06;100.00;60892.56;4858781;28;20267;-90
2023/09/24 11:54:18;;;;;;;;;;;;;;;-145.06;100.00;60892.56;4867863;28;19926;-91
2023/09/24 11:56:57;;;;;;;;;;;;;;;-145.06;100.00;60892.56;4855645;28;19921;-90
2023/09/24 11:59:36;;;;;;;;;;;;;;;-145.06;100.00;60892.56;4854677;28;19917;-91
2023/09/24 12:02:15;;;;;;;;;;;;;;;-145.06;100.00;60892.56;4861534;28;20284;-91
2023/09/24 12:04:57;;;;;;;;;;;;;;;-145.06;100.00;60892.56;4850007;28;19918;-90
2023/09/24 12:07:36;;;;;;;;;;;;;;;-145.06;100.00;60892.56;4847660;28;19917;-91
2023/09/24 12:10:15;;;;;;;;;;;;;;;-145.06;100.00;60892.56;4861481;28;19925;-91
2023/09/24 12:12:54;;;;;;;;;;;;;;;-145.06;100.00;60892.56;4854672;28;20260;-91
2023/09/24 12:15:33;;;;;;;;;;;;;;;-145.06;100.00;60892.56;4855478;28;20453;-90
2023/09/24 12:18:12;;;;;;;;;;;;;;;-145.06;100.00;60892.56;4860617;28;20356;-90
2023/09/24 12:20:51;;;;;;;;;;;;;;;-145.06;100.00;60892.56;4858949;28;19921;-91
2023/09/24 12:23:33;;;;;;;;;;;;;;;-145.06;100.00;60892.56;4856105;28;19921;-90
2023/09/24 12:26:12;;;;;;;;;;;;;;;-145.06;100.00;60892.56;4857361;28;19917;-90
2023/09/24 12:28:51;;;;;;;;;;;;;;;-145.06;100.00;60892.56;4868738;28;20367;-90
2023/09/24 12:31:31;;;;;;;;;;;;;;;-145.06;100.00;60892.56;4857029;28;19913;-89
2023/09/24 12:34:10;;;;;;;;;;;;;;;-145.06;100.00;60892.56;4863551;28;19921;-90
2023/09/24 12:36:49;;;;;;;;;;;;;;;-145.06;100.00;60892.56;4858320;28;19917;-91
2023/09/24 12:39:28;;;;;;;;;;;;;;;-145.06;100.00;60892.56;4848680;28;19917;-89
2023/09/24 12:42:07;;;;;;;;;;;;;;;-145.06;100.00;60892.56;4849996;28;19917;-91
2023/09/24 12:44:48;;;;;;;;;;;;;;;-145.06;100.00;60892.56;4855296;28;19921;-91
2023/09/24 12:47:34;;;;;;;;;;;;;;;-145.06;100.00;60892.56;4859891;28;19925;-90
2023/09/24 12:50:13;;;;;;;;;;;;;;;-145.06;100.00;60892.56;4852226;28;19948;-90
2023/09/24 12:52:58;;;;;;;;;;;;;;;-145.06;100.00;60892.56;4850578;28;20143;-93
2023/09/24 12:55:37;;;;;;;;;;;;;;;-145.06;100.00;60892.56;4861178;28;20427;-89
2023/09/24 12:58:16;;;;;;;;;;;;;;;-145.06;100.00;60892.56;4852493;28;19926;-93
2023/09/24 13:00:55;;;;;;;;;;;;;;;-145.06;100.00;60892.56;4848085;28;20236;-90
2023/09/24 13:03:37;;;;;;;;;;;;;;;-145.06;100.00;60892.56;4867496;28;20332;-90
2023/09/24 13:06:17;;;;;;;;;;;;;;;-145.06;100.00;60892.56;4857995;28;19921;-90
2023/09/24 13:08:58;;;;;;;;;;;;;;;-145.06;100.00;60892.56;4856668;28;22265;-90
2023/09/24 13:11:37;;;;;;;;;;;;;;;-145.06;100.00;60892.56;4869486;28;19917;-91
2023/09/24 13:14:16;;;;;;;;;;;;;;;-145.06;100.00;60892.56;4856779;28;19917;-90
2023/09/24 13:16:55;;;;;;;;;;;;;;;-145.06;100.00;60892.56;4865380;28;19921;-90
2023/09/24 13:19:34;;;;;;;;;;;;;;;-145.06;100.00;60892.56;4850957;28;19917;-91
2023/09/24 13:22:13;;;;;;;;;;;;;;;-145.06;100.00;60892.56;4862850;28;19921;-90
2023/09/24 13:24:55;;;;;;;;;;;;;;;-145.06;100.00;60892.56;4863863;28;20364;-89
2023/09/24 13:27:34;;;;;;;;;;;;;;;-145.06;100.00;60892.56;4856777;28;19922;-92
2023/09/24 13:30:12;;;;;;;;;;;;;;;-145.06;100.00;60892.56;4855492;28;20387;-91